createdAt,value
2019-05-29T00:00:33.311Z,62.90
2019-05-29T00:01:33.332Z,62.37
2019-05-29T00:02:33.313Z,62.11
2019-05-29T00:03:33.340Z,60.89
2019-05-29T00:04:33.305Z,60.97
2019-05-29T00:05:33.282Z,59.93
2019-05-29T00:06:33.327Z,58.92
2019-05-29T00:07:33.274Z,58.65
2019-05-29T00:08:33.291Z,59.25
2019-05-29T00:09:33.155Z,58.37
2019-05-29T00:10:33.224Z,60.12
2019-05-29T00:11:33.246Z,60.17
2019-05-29T00:12:33.234Z,60.81
2019-05-29T00:13:33.204Z,63.07
2019-05-29T00:14:33.204Z,63.09
2019-05-29T00:15:33.199Z,63.02
2019-05-29T00:16:33.171Z,64.54
2019-05-29T00:17:33.135Z,64.24
2019-05-29T00:18:33.196Z,65.05
2019-05-29T00:19:33.142Z,65.45
2019-05-29T00:20:33.137Z,64.24
2019-05-29T00:21:33.122Z,64.47
2019-05-29T00:22:33.113Z,65.05
2019-05-29T00:23:33.078Z,65.59
2019-05-29T00:24:33.133Z,65.15
2019-05-29T00:25:33.117Z,62.49
2019-05-29T00:26:33.062Z,63.76
2019-05-29T00:27:33.032Z,63.86
2019-05-29T00:28:33.021Z,65.31
2019-05-29T00:29:33.018Z,65.14
2019-05-29T00:30:33.027Z,65.34
2019-05-29T00:31:33.062Z,66.16
2019-05-29T00:32:33.053Z,65.62
2019-05-29T00:33:32.998Z,64.40
2019-05-29T00:34:32.948Z,65.31
2019-05-29T00:35:32.968Z,65.21
2019-05-29T00:36:32.966Z,66.33
2019-05-29T00:37:32.941Z,63.89
2019-05-29T00:38:32.963Z,65.14
2019-05-29T00:39:32.837Z,65.14
2019-05-29T00:40:32.798Z,65.65
2019-05-29T00:41:32.911Z,66.77
2019-05-29T00:42:32.853Z,65.45
2019-05-29T00:43:32.877Z,65.45
2019-05-29T00:44:34.643Z,66.46
2019-05-29T00:45:32.821Z,66.56
2019-05-29T00:46:32.844Z,64.91
2019-05-29T00:47:32.841Z,65.65
2019-05-29T00:48:32.815Z,65.11
2019-05-29T00:49:32.781Z,65.45
2019-05-29T00:50:33.021Z,65.48
2019-05-29T00:51:32.773Z,66.49
2019-05-29T00:52:32.785Z,65.68
2019-05-29T00:53:32.739Z,67.13
2019-05-29T00:54:32.759Z,67.54
2019-05-29T00:55:32.791Z,67.44
2019-05-29T00:56:32.702Z,67.94
2019-05-29T00:57:32.711Z,67.03
2019-05-29T00:58:32.703Z,67.27
2019-05-29T00:59:32.672Z,68.38
2019-05-29T01:00:32.686Z,67.67
2019-05-29T01:01:32.702Z,68.32
2019-05-29T01:02:32.685Z,68.21
2019-05-29T01:03:32.636Z,68.99
2019-05-29T01:04:32.670Z,67.57
2019-05-29T01:05:32.632Z,67.88
2019-05-29T01:06:32.658Z,67.88
2019-05-29T01:07:32.586Z,67.57
2019-05-29T01:08:32.597Z,67.97
2019-05-29T01:09:32.572Z,69.06
2019-05-29T01:10:32.572Z,67.44
2019-05-29T01:11:32.545Z,67.61
2019-05-29T01:12:32.602Z,65.95
2019-05-29T01:13:32.543Z,65.65
2019-05-29T01:14:32.533Z,65.24
2019-05-29T01:15:32.533Z,65.45
2019-05-29T01:16:32.509Z,65.75
2019-05-29T01:17:32.469Z,65.34
2019-05-29T01:18:32.510Z,66.36
2019-05-29T01:19:32.490Z,66.63
2019-05-29T01:20:32.463Z,65.25
2019-05-29T01:21:32.427Z,64.78
2019-05-29T01:22:32.469Z,64.34
2019-05-29T01:23:32.469Z,64.01
2019-05-29T01:24:32.405Z,62.86
2019-05-29T01:25:32.403Z,62.93
2019-05-29T01:26:32.305Z,62.43
2019-05-29T01:27:32.360Z,62.60
2019-05-29T01:28:32.373Z,61.16
2019-05-29T01:29:32.441Z,60.14
2019-05-29T01:30:32.360Z,60.48
2019-05-29T01:31:32.345Z,62.60
2019-05-29T01:32:32.333Z,62.30
2019-05-29T01:33:32.301Z,61.87
2019-05-29T01:34:32.283Z,61.46
2019-05-29T01:35:32.330Z,61.03
2019-05-29T01:36:32.290Z,59.78
2019-05-29T01:37:32.276Z,59.28
2019-05-29T01:38:32.264Z,60.22
2019-05-29T01:39:32.248Z,60.22
2019-05-29T01:40:32.296Z,60.22
2019-05-29T01:41:32.213Z,59.11
2019-05-29T01:42:32.195Z,60.55
2019-05-29T01:43:32.111Z,60.65
2019-05-29T01:44:32.190Z,60.45
2019-05-29T01:45:32.158Z,60.05
2019-05-29T01:46:32.229Z,60.68
2019-05-29T01:47:32.175Z,62.10
2019-05-29T01:48:32.185Z,60.68
2019-05-29T01:49:32.134Z,60.20
2019-05-29T01:50:32.141Z,61.01
2019-05-29T01:51:32.111Z,62.26
2019-05-29T01:52:32.074Z,61.78
2019-05-29T01:53:32.106Z,63.20
2019-05-29T01:54:32.047Z,64.11
2019-05-29T01:55:32.049Z,63.64
2019-05-29T01:56:32.028Z,62.40
2019-05-29T01:57:32.026Z,62.27
2019-05-29T01:58:32.026Z,60.82
2019-05-29T01:59:32.033Z,58.37
2019-05-29T02:00:32.004Z,58.34
2019-05-29T02:01:31.990Z,58.54
2019-05-29T02:02:31.975Z,58.58
2019-05-29T02:03:31.961Z,60.49
2019-05-29T02:04:31.941Z,60.09
2019-05-29T02:05:31.970Z,60.39
2019-05-29T02:06:31.916Z,59.99
2019-05-29T02:07:31.903Z,60.32
2019-05-29T02:08:31.935Z,59.81
2019-05-29T02:09:31.895Z,59.84
2019-05-29T02:10:31.916Z,61.11
2019-05-29T02:11:32.381Z,61.14
2019-05-29T02:12:31.848Z,63.17
2019-05-29T02:13:31.839Z,62.59
2019-05-29T02:14:31.838Z,63.81
2019-05-29T02:15:33.971Z,62.49
2019-05-29T02:16:31.841Z,62.99
2019-05-29T02:17:31.820Z,62.62
2019-05-29T02:18:31.788Z,63.96
2019-05-29T02:19:31.791Z,65.59
2019-05-29T02:20:31.795Z,64.98
2019-05-29T02:21:31.756Z,63.96
2019-05-29T02:22:31.759Z,64.17
2019-05-29T02:23:31.761Z,63.63
2019-05-29T02:24:31.719Z,64.14
2019-05-29T02:25:31.717Z,64.95
2019-05-29T02:26:32.701Z,63.90
2019-05-29T02:27:31.679Z,64.51
2019-05-29T02:28:31.677Z,62.56
2019-05-29T02:29:31.697Z,62.35
2019-05-29T02:30:31.647Z,63.37
2019-05-29T02:31:31.650Z,62.49
2019-05-29T02:32:31.616Z,63.67
2019-05-29T02:33:31.608Z,62.96
2019-05-29T02:34:31.700Z,61.24
2019-05-29T02:35:31.588Z,62.19
2019-05-29T02:36:31.581Z,60.91
2019-05-29T02:37:31.589Z,61.41
2019-05-29T02:38:31.479Z,62.12
2019-05-29T02:39:31.575Z,62.40
2019-05-29T02:40:31.604Z,62.16
2019-05-29T02:41:31.563Z,60.85
2019-05-29T02:42:31.550Z,61.13
2019-05-29T02:43:31.534Z,60.39
2019-05-29T02:44:31.530Z,59.76
2019-05-29T02:45:52.648Z,59.12
2019-05-29T02:46:32.520Z,58.89
2019-05-29T02:47:31.468Z,58.16
2019-05-29T02:48:31.894Z,58.16
2019-05-29T02:49:31.435Z,57.73
2019-05-29T02:50:31.441Z,57.40
2019-05-29T02:51:31.428Z,57.20
2019-05-29T02:52:31.450Z,56.47
2019-05-29T02:53:31.398Z,56.57
2019-05-29T02:54:32.266Z,56.34
2019-05-29T02:55:31.420Z,55.74
2019-05-29T02:56:31.395Z,55.54
2019-05-29T02:57:31.417Z,55.54
2019-05-29T02:58:31.836Z,55.41
2019-05-29T02:59:32.054Z,55.03
2019-05-29T03:00:31.466Z,55.41
2019-05-29T03:01:31.813Z,55.23
2019-05-29T03:02:32.129Z,55.00
2019-05-29T03:03:39.380Z,55.11
2019-05-29T03:04:33.072Z,54.91
2019-05-29T03:05:32.027Z,54.71
2019-05-29T03:06:32.355Z,54.50
2019-05-29T03:07:32.808Z,54.80
2019-05-29T03:08:32.465Z,54.80
2019-05-29T03:09:32.530Z,54.50
2019-05-29T03:10:32.975Z,54.91
2019-05-29T03:11:31.367Z,54.91
2019-05-29T03:12:31.541Z,54.68
2019-05-29T03:13:31.743Z,54.71
2019-05-29T03:14:31.814Z,53.27
2019-05-29T03:15:31.589Z,54.58
2019-05-29T03:16:32.823Z,54.38
2019-05-29T03:17:31.919Z,54.68
2019-05-29T03:18:32.466Z,54.48
2019-05-29T03:19:32.442Z,53.67
2019-05-29T03:20:32.335Z,54.28
2019-05-29T03:21:32.410Z,54.17
2019-05-29T03:22:33.131Z,54.58
2019-05-29T03:23:33.322Z,54.58
2019-05-29T03:24:32.743Z,54.58
2019-05-29T03:25:32.476Z,54.08
2019-05-29T03:26:32.923Z,54.15
2019-05-29T03:27:31.949Z,52.37
2019-05-29T03:28:32.384Z,52.69
2019-05-29T03:29:31.939Z,54.83
2019-05-29T03:30:37.407Z,55.54
2019-05-29T03:31:39.743Z,55.56
2019-05-29T03:32:39.250Z,55.94
2019-05-29T03:33:39.271Z,56.07
2019-05-29T03:34:37.651Z,55.74
2019-05-29T03:35:42.073Z,54.03
2019-05-29T03:36:38.411Z,55.63
2019-05-29T03:37:32.477Z,55.03
2019-05-29T03:38:32.440Z,55.83
2019-05-29T03:39:32.237Z,54.23
2019-05-29T03:40:31.659Z,53.95
2019-05-29T03:41:32.544Z,54.68
2019-05-29T03:42:32.391Z,55.79
2019-05-29T03:43:31.523Z,54.30
2019-05-29T03:44:31.406Z,56.77
2019-05-29T03:45:33.076Z,57.81
2019-05-29T03:46:39.972Z,57.94
2019-05-29T03:47:33.163Z,57.87
2019-05-29T03:48:32.407Z,60.35
2019-05-29T03:49:31.186Z,60.14
2019-05-29T03:50:32.564Z,60.58
2019-05-29T03:51:32.549Z,62.26
2019-05-29T03:52:32.534Z,61.35
2019-05-29T03:53:31.602Z,62.29
2019-05-29T03:54:32.987Z,62.52
2019-05-29T03:55:31.563Z,64.14
2019-05-29T03:56:31.233Z,64.07
2019-05-29T03:57:31.791Z,64.58
2019-05-29T03:58:31.037Z,64.61
2019-05-29T03:59:30.785Z,64.00
2019-05-29T04:00:38.788Z,64.94
2019-05-29T04:01:33.121Z,65.45
2019-05-29T04:02:31.272Z,65.11
2019-05-29T04:03:31.132Z,65.42
2019-05-29T04:04:31.363Z,65.48
2019-05-29T04:05:30.993Z,64.95
2019-05-29T04:06:31.152Z,64.31
2019-05-29T04:07:31.349Z,63.04
2019-05-29T04:08:31.499Z,62.19
2019-05-29T04:09:31.318Z,60.93
2019-05-29T04:10:34.206Z,60.49
2019-05-29T04:11:31.429Z,60.06
2019-05-29T04:12:31.402Z,57.43
2019-05-29T04:13:31.863Z,58.95
2019-05-29T04:14:31.614Z,58.62
2019-05-29T04:15:31.625Z,58.39
2019-05-29T04:16:50.647Z,57.89
2019-05-29T04:17:32.290Z,56.55
2019-05-29T04:18:31.484Z,55.84
2019-05-29T04:19:32.039Z,57.05
2019-05-29T04:20:31.607Z,56.27
2019-05-29T04:21:32.067Z,56.37
2019-05-29T04:22:32.428Z,57.03
2019-05-29T04:23:31.997Z,58.37
2019-05-29T04:24:31.854Z,60.52
2019-05-29T04:25:35.460Z,59.64
2019-05-29T04:26:32.253Z,60.85
2019-05-29T04:27:31.867Z,60.52
2019-05-29T04:28:32.262Z,60.19
2019-05-29T04:29:31.947Z,59.86
2019-05-29T04:30:31.999Z,59.12
2019-05-29T04:31:32.353Z,57.10
2019-05-29T04:32:30.326Z,57.54
2019-05-29T04:33:30.621Z,58.34
2019-05-29T04:34:31.730Z,58.27
2019-05-29T04:35:30.347Z,59.38
2019-05-29T04:36:30.800Z,59.99
2019-05-29T04:37:30.387Z,59.35
2019-05-29T04:38:30.999Z,58.42
2019-05-29T04:39:30.616Z,56.20
2019-05-29T04:40:30.585Z,57.54
2019-05-29T04:41:30.850Z,58.78
2019-05-29T04:42:31.948Z,60.22
2019-05-29T04:43:31.118Z,60.49
2019-05-29T04:44:30.817Z,59.78
2019-05-29T04:45:30.864Z,58.95
2019-05-29T04:46:31.702Z,58.01
2019-05-29T04:47:31.027Z,57.68
2019-05-29T04:48:31.473Z,56.77
2019-05-29T04:49:31.909Z,57.48
2019-05-29T04:50:31.350Z,55.94
2019-05-29T04:51:31.186Z,58.06
2019-05-29T04:52:31.351Z,57.05
2019-05-29T04:53:31.292Z,56.55
2019-05-29T04:54:31.073Z,55.77
2019-05-29T04:55:30.707Z,58.09
2019-05-29T04:56:30.733Z,57.28
2019-05-29T04:57:30.850Z,57.05
2019-05-29T04:58:30.748Z,56.95
2019-05-29T04:59:30.871Z,56.72
2019-05-29T05:00:30.928Z,56.62
2019-05-29T05:01:30.894Z,56.42
2019-05-29T05:02:31.078Z,54.91
2019-05-29T05:03:31.011Z,55.01
2019-05-29T05:04:30.980Z,55.94
2019-05-29T05:05:31.070Z,57.18
2019-05-29T05:06:31.094Z,56.81
2019-05-29T05:07:31.073Z,56.63
2019-05-29T05:08:29.875Z,58.27
2019-05-29T05:09:29.889Z,59.23
2019-05-29T05:10:29.854Z,60.07
2019-05-29T05:11:29.890Z,60.23
2019-05-29T05:12:29.909Z,61.17
2019-05-29T05:13:29.817Z,62.21
2019-05-29T05:14:29.816Z,63.15
2019-05-29T05:15:29.834Z,63.29
2019-05-29T05:16:29.844Z,64.64
2019-05-29T05:17:29.799Z,65.52
2019-05-29T05:18:29.834Z,63.63
2019-05-29T05:19:29.801Z,62.82
2019-05-29T05:20:29.991Z,63.83
2019-05-29T05:21:29.888Z,62.99
2019-05-29T05:22:30.027Z,62.31
2019-05-29T05:23:30.072Z,62.99
2019-05-29T05:24:30.154Z,62.29
2019-05-29T05:25:30.030Z,62.69
2019-05-29T05:26:30.060Z,60.77
2019-05-29T05:27:30.122Z,61.30
2019-05-29T05:28:30.389Z,62.68
2019-05-29T05:29:30.152Z,64.43
2019-05-29T05:30:30.435Z,64.43
2019-05-29T05:31:30.321Z,64.23
2019-05-29T05:32:30.557Z,65.58
2019-05-29T05:33:30.408Z,66.90
2019-05-29T05:34:30.541Z,66.39
2019-05-29T05:35:30.728Z,64.84
2019-05-29T05:36:30.547Z,65.04
2019-05-29T05:37:30.609Z,65.34
2019-05-29T05:38:30.589Z,65.34
2019-05-29T05:39:30.701Z,64.97
2019-05-29T05:40:30.663Z,66.08
2019-05-29T05:41:30.665Z,65.45
2019-05-29T05:42:31.000Z,65.65
2019-05-29T05:43:30.504Z,66.05
2019-05-29T05:44:30.691Z,65.72
2019-05-29T05:45:29.456Z,63.35
2019-05-29T05:46:29.478Z,63.29
2019-05-29T05:47:43.481Z,64.33
2019-05-29T05:48:30.968Z,64.23
2019-05-29T05:49:29.443Z,65.37
2019-05-29T05:50:29.369Z,66.19
2019-05-29T05:51:29.317Z,65.78
2019-05-29T05:52:29.315Z,66.60
2019-05-29T05:53:29.288Z,66.46
2019-05-29T05:54:29.263Z,65.24
2019-05-29T05:55:29.259Z,65.14
2019-05-29T05:56:29.469Z,65.34
2019-05-29T05:57:29.319Z,65.14
2019-05-29T05:58:29.222Z,65.48
2019-05-29T05:59:29.327Z,65.71
2019-05-29T06:00:29.307Z,67.47
2019-05-29T06:01:29.189Z,67.67
2019-05-29T06:02:29.219Z,67.50
2019-05-29T06:03:29.166Z,71.53
2019-05-29T06:04:29.260Z,71.09
2019-05-29T06:05:29.283Z,69.20
2019-05-29T06:06:29.258Z,67.31
2019-05-29T06:07:29.223Z,66.54
2019-05-29T06:08:29.160Z,65.56
2019-05-29T06:09:29.218Z,64.02
2019-05-29T06:10:29.198Z,62.85
2019-05-29T06:11:29.090Z,62.01
2019-05-29T06:12:29.171Z,61.37
2019-05-29T06:13:29.179Z,60.94
2019-05-29T06:14:29.191Z,60.21
2019-05-29T06:15:29.127Z,59.67
2019-05-29T06:16:29.142Z,59.64
2019-05-29T06:17:29.132Z,59.01
2019-05-29T06:18:29.107Z,58.71
2019-05-29T06:19:29.111Z,58.98
2019-05-29T06:20:29.009Z,58.07
2019-05-29T06:21:29.058Z,58.28
2019-05-29T06:22:30.090Z,57.55
2019-05-29T06:23:28.938Z,57.85
2019-05-29T06:24:29.051Z,57.65
2019-05-29T06:25:29.036Z,57.22
2019-05-29T06:26:28.906Z,57.32
2019-05-29T06:27:28.912Z,57.02
2019-05-29T06:28:29.001Z,56.82
2019-05-29T06:29:28.891Z,56.89
2019-05-29T06:30:28.976Z,56.82
2019-05-29T06:31:28.855Z,56.69
2019-05-29T06:32:28.944Z,56.19
2019-05-29T06:33:28.849Z,56.69
2019-05-29T06:34:28.945Z,56.38
2019-05-29T06:35:28.937Z,56.16
2019-05-29T06:36:28.910Z,56.46
2019-05-29T06:37:28.787Z,56.16
2019-05-29T06:38:28.803Z,55.96
2019-05-29T06:39:28.783Z,55.96
2019-05-29T06:40:28.756Z,56.26
2019-05-29T06:41:28.968Z,55.96
2019-05-29T06:42:28.837Z,56.06
2019-05-29T06:43:28.758Z,55.86
2019-05-29T06:44:28.722Z,55.86
2019-05-29T06:45:28.705Z,55.83
2019-05-29T06:46:28.727Z,55.93
2019-05-29T06:47:28.666Z,55.73
2019-05-29T06:48:52.658Z,56.03
2019-05-29T06:49:29.652Z,55.53
2019-05-29T06:50:28.639Z,55.53
2019-05-29T06:51:28.643Z,55.63
2019-05-29T06:52:28.659Z,55.43
2019-05-29T06:53:28.719Z,55.23
2019-05-29T06:54:28.596Z,55.03
2019-05-29T06:55:28.605Z,54.93
2019-05-29T06:56:28.672Z,54.80
2019-05-29T06:57:28.567Z,54.63
2019-05-29T06:58:28.923Z,54.72
2019-05-29T06:59:28.629Z,54.63
2019-05-29T07:00:35.237Z,54.63
2019-05-29T07:01:29.625Z,54.72
2019-05-29T07:02:31.776Z,54.72
2019-05-29T07:03:28.658Z,54.43
2019-05-29T07:04:28.497Z,54.43
2019-05-29T07:05:28.476Z,54.33
2019-05-29T07:06:28.472Z,54.33
2019-05-29T07:07:28.457Z,54.02
2019-05-29T07:08:38.064Z,54.13
2019-05-29T07:09:29.483Z,54.20
2019-05-29T07:10:28.418Z,54.30
2019-05-29T07:11:28.418Z,54.10
2019-05-29T07:12:28.516Z,55.30
2019-05-29T07:13:28.410Z,57.81
2019-05-29T07:14:28.392Z,59.52
2019-05-29T07:15:28.403Z,59.62
2019-05-29T07:16:43.179Z,59.72
2019-05-29T07:17:29.471Z,58.99
2019-05-29T07:18:28.432Z,59.49
2019-05-29T07:19:47.097Z,59.42
2019-05-29T07:20:29.351Z,58.09
2019-05-29T07:21:28.305Z,58.09
2019-05-29T07:22:28.406Z,58.29
2019-05-29T07:23:28.398Z,58.39
2019-05-29T07:24:28.373Z,58.99
2019-05-29T07:25:28.272Z,58.09
2019-05-29T07:26:28.379Z,57.18
2019-05-29T07:27:28.250Z,57.79
2019-05-29T07:28:28.326Z,57.48
2019-05-29T07:29:28.225Z,57.59
2019-05-29T07:30:28.303Z,57.59
2019-05-29T07:31:28.255Z,57.79
2019-05-29T07:32:28.276Z,57.48
2019-05-29T07:33:28.173Z,57.68
2019-05-29T07:34:28.153Z,57.18
2019-05-29T07:35:28.259Z,56.76
2019-05-29T07:36:28.366Z,56.98
2019-05-29T07:37:28.291Z,56.76
2019-05-29T07:38:28.149Z,56.88
2019-05-29T07:39:28.102Z,56.18
2019-05-29T07:40:28.082Z,56.56
2019-05-29T07:41:28.072Z,56.65
2019-05-29T07:42:28.119Z,56.45
2019-05-29T07:43:28.067Z,56.35
2019-05-29T07:44:28.084Z,56.56
2019-05-29T07:45:28.075Z,56.15
2019-05-29T07:46:28.059Z,56.45
2019-05-29T07:47:28.092Z,56.45
2019-05-29T07:48:28.025Z,56.65
2019-05-29T07:50:29.018Z,56.96
2019-05-29T07:50:34.288Z,56.65
2019-05-29T07:51:27.976Z,57.46
2019-05-29T07:52:28.092Z,57.96
2019-05-29T07:53:27.941Z,51.76
2019-05-29T07:54:27.919Z,55.30
2019-05-29T07:55:27.904Z,57.24
2019-05-29T07:56:27.956Z,58.97
2019-05-29T07:57:27.904Z,59.67
2019-05-29T07:58:27.958Z,58.17
2019-05-29T07:59:28.696Z,56.59
2019-05-29T08:00:35.147Z,56.89
2019-05-29T08:01:30.534Z,53.60
2019-05-29T08:02:27.847Z,60.36
2019-05-29T08:03:27.875Z,59.79
2019-05-29T08:04:27.828Z,60.69
2019-05-29T08:05:27.803Z,61.60
2019-05-29T08:06:27.805Z,61.90
2019-05-29T08:07:27.791Z,60.97
2019-05-29T08:08:27.787Z,60.77
2019-05-29T08:09:27.798Z,56.34
2019-05-29T08:10:27.763Z,55.13
2019-05-29T08:11:27.754Z,56.27
2019-05-29T08:12:27.741Z,57.00
2019-05-29T08:13:27.775Z,56.04
2019-05-29T08:14:27.716Z,57.64
2019-05-29T08:15:27.693Z,58.80
2019-05-29T08:16:27.695Z,59.67
2019-05-29T08:17:27.674Z,60.63
2019-05-29T08:18:27.673Z,62.29
2019-05-29T08:19:27.683Z,63.43
2019-05-29T08:20:27.662Z,64.67
2019-05-29T08:21:27.673Z,65.48
2019-05-29T08:22:34.182Z,65.72
2019-05-29T08:23:28.613Z,65.31
2019-05-29T08:24:27.598Z,65.21
2019-05-29T08:25:27.588Z,66.26
2019-05-29T08:26:27.583Z,65.65
2019-05-29T08:27:27.641Z,69.10
2019-05-29T08:28:27.617Z,68.76
2019-05-29T08:29:27.548Z,68.83
2019-05-29T08:30:27.526Z,67.96
2019-05-29T08:31:27.527Z,66.50
2019-05-29T08:32:27.509Z,65.43
2019-05-29T08:33:27.564Z,64.26
2019-05-29T08:34:27.483Z,63.42
2019-05-29T08:35:27.482Z,62.35
2019-05-29T08:36:27.467Z,62.02
2019-05-29T08:37:27.442Z,60.88
2019-05-29T08:38:27.446Z,60.35
2019-05-29T08:39:36.066Z,60.22
2019-05-29T08:40:28.422Z,59.79
2019-05-29T08:41:27.408Z,58.95
2019-05-29T08:42:27.410Z,58.65
2019-05-29T08:43:27.385Z,59.06
2019-05-29T08:44:27.387Z,58.22
2019-05-29T08:45:27.422Z,57.92
2019-05-29T08:46:27.377Z,57.72
2019-05-29T08:47:27.340Z,57.39
2019-05-29T08:48:27.326Z,57.06
2019-05-29T08:49:27.318Z,56.76
2019-05-29T08:50:27.305Z,56.86
2019-05-29T08:51:27.349Z,56.63
2019-05-29T08:52:27.336Z,56.63
2019-05-29T08:53:27.282Z,56.63
2019-05-29T08:54:27.262Z,56.54
2019-05-29T08:55:27.259Z,56.23
2019-05-29T08:56:27.235Z,56.43
2019-05-29T08:57:27.254Z,56.34
2019-05-29T08:58:27.243Z,56.21
2019-05-29T08:59:27.207Z,55.91
2019-05-29T09:00:27.196Z,56.30
2019-05-29T09:01:27.202Z,55.91
2019-05-29T09:02:27.186Z,56.01
2019-05-29T09:03:27.195Z,55.98
2019-05-29T09:04:27.183Z,55.78
2019-05-29T09:05:27.137Z,55.98
2019-05-29T09:06:27.135Z,55.58
2019-05-29T09:07:27.118Z,55.68
2019-05-29T09:08:27.131Z,55.47
2019-05-29T09:09:27.104Z,55.38
2019-05-29T09:10:27.124Z,55.08
2019-05-29T09:11:27.076Z,55.38
2019-05-29T09:12:29.821Z,55.08
2019-05-29T09:13:27.046Z,55.08
2019-05-29T09:14:27.036Z,54.95
2019-05-29T09:15:27.023Z,54.85
2019-05-29T09:16:27.043Z,55.15
2019-05-29T09:17:27.015Z,55.15
2019-05-29T09:18:27.040Z,55.05
2019-05-29T09:19:26.986Z,54.95
2019-05-29T09:20:49.515Z,54.85
2019-05-29T09:21:27.958Z,55.15
2019-05-29T09:22:26.969Z,54.82
2019-05-29T09:23:26.938Z,54.82
2019-05-29T09:24:26.957Z,54.82
2019-05-29T09:25:26.928Z,55.13
2019-05-29T09:26:26.908Z,54.72
2019-05-29T09:27:26.916Z,54.65
2019-05-29T09:28:26.893Z,54.62
2019-05-29T09:29:26.925Z,54.72
2019-05-29T09:30:26.861Z,54.65
2019-05-29T09:31:26.862Z,54.85
2019-05-29T09:32:48.774Z,54.93
2019-05-29T09:33:27.820Z,54.82
2019-05-29T09:34:26.823Z,55.02
2019-05-29T09:35:26.831Z,54.82
2019-05-29T09:36:26.837Z,54.82
2019-05-29T09:37:26.781Z,54.62
2019-05-29T09:38:26.782Z,54.72
2019-05-29T09:39:26.763Z,54.72
2019-05-29T09:40:26.745Z,54.62
2019-05-29T09:41:26.776Z,54.62
2019-05-29T09:42:26.735Z,54.82
2019-05-29T09:43:30.461Z,54.52
2019-05-29T09:44:37.914Z,54.82
2019-05-29T09:45:27.701Z,54.52
2019-05-29T09:46:26.686Z,54.70
2019-05-29T09:47:26.709Z,54.90
2019-05-29T09:48:28.633Z,54.82
2019-05-29T09:49:26.659Z,54.80
2019-05-29T09:50:27.676Z,54.93
2019-05-29T09:51:26.631Z,54.62
2019-05-29T09:52:30.427Z,54.60
2019-05-29T09:53:26.659Z,54.60
2019-05-29T09:54:26.773Z,54.70
2019-05-29T09:55:26.583Z,54.70
2019-05-29T09:56:26.568Z,54.50
2019-05-29T09:57:26.560Z,54.39
2019-05-29T09:58:26.555Z,54.10
2019-05-29T09:59:26.593Z,54.00
2019-05-29T10:00:26.537Z,54.00
2019-05-29T10:01:26.550Z,54.00
2019-05-29T10:02:26.515Z,53.89
2019-05-29T10:03:26.508Z,54.30
2019-05-29T10:04:26.483Z,54.39
2019-05-29T10:05:26.522Z,54.20
2019-05-29T10:06:26.479Z,54.39
2019-05-29T10:07:26.461Z,54.30
2019-05-29T10:08:26.435Z,54.30
2019-05-29T10:09:26.469Z,54.39
2019-05-29T10:10:26.481Z,54.39
2019-05-29T10:11:26.445Z,54.10
2019-05-29T10:12:26.415Z,54.20
2019-05-29T10:13:26.399Z,54.20
2019-05-29T10:14:26.384Z,54.30
2019-05-29T10:15:26.371Z,54.00
2019-05-29T10:16:26.406Z,53.77
2019-05-29T10:17:26.396Z,53.87
2019-05-29T10:18:32.417Z,53.89
2019-05-29T10:19:27.332Z,54.07
2019-05-29T10:20:26.323Z,53.97
2019-05-29T10:21:39.152Z,54.17
2019-05-29T10:22:27.324Z,53.87
2019-05-29T10:23:26.365Z,54.17
2019-05-29T10:24:26.264Z,54.07
2019-05-29T10:25:26.268Z,53.97
2019-05-29T10:26:26.247Z,53.97
2019-05-29T10:27:26.243Z,54.07
2019-05-29T10:28:26.242Z,54.07
2019-05-29T10:29:26.284Z,53.97
2019-05-29T10:30:26.200Z,53.87
2019-05-29T10:31:26.212Z,54.07
2019-05-29T10:32:26.191Z,53.97
2019-05-29T10:33:26.182Z,54.07
2019-05-29T10:34:26.182Z,53.77
2019-05-29T10:35:26.196Z,54.17
2019-05-29T10:36:26.146Z,54.05
2019-05-29T10:37:26.175Z,53.97
2019-05-29T10:38:26.112Z,54.27
2019-05-29T10:39:26.117Z,54.07
2019-05-29T10:40:26.106Z,54.07
2019-05-29T10:41:26.108Z,53.94
2019-05-29T10:42:26.061Z,54.07
2019-05-29T10:43:34.305Z,54.17
2019-05-29T10:44:27.048Z,53.97
2019-05-29T10:45:26.048Z,54.17
2019-05-29T10:46:26.013Z,54.35
2019-05-29T10:47:26.034Z,54.67
2019-05-29T10:48:26.011Z,54.67
2019-05-29T10:49:26.138Z,54.55
2019-05-29T10:50:25.978Z,54.67
2019-05-29T10:51:25.991Z,54.64
2019-05-29T10:52:25.959Z,54.77
2019-05-29T10:53:25.996Z,54.57
2019-05-29T10:54:25.945Z,54.74
2019-05-29T10:55:25.927Z,54.44
2019-05-29T10:56:25.907Z,54.64
2019-05-29T10:57:25.911Z,54.74
2019-05-29T10:58:25.908Z,54.55
2019-05-29T10:59:25.944Z,54.64
2019-05-29T11:00:25.889Z,54.55
2019-05-29T11:01:25.874Z,54.55
2019-05-29T11:02:25.878Z,54.74
2019-05-29T11:03:25.845Z,54.55
2019-05-29T11:04:25.846Z,54.44
2019-05-29T11:05:25.871Z,54.64
2019-05-29T11:06:25.827Z,54.44
2019-05-29T11:07:25.800Z,54.44
2019-05-29T11:08:25.790Z,54.35
2019-05-29T11:09:25.794Z,54.14
2019-05-29T11:10:25.763Z,54.24
2019-05-29T11:11:25.829Z,54.35
2019-05-29T11:12:25.738Z,54.24
2019-05-29T11:13:25.761Z,53.94
2019-05-29T11:14:25.736Z,54.44
2019-05-29T11:15:25.702Z,53.94
2019-05-29T11:16:25.718Z,53.94
2019-05-29T11:17:25.729Z,53.94
2019-05-29T11:18:25.678Z,53.94
2019-05-29T11:19:26.232Z,53.94
2019-05-29T11:20:25.667Z,54.05
2019-05-29T11:21:25.645Z,54.14
2019-05-29T11:22:26.695Z,54.14
2019-05-29T11:23:25.670Z,53.85
2019-05-29T11:24:25.603Z,53.94
2019-05-29T11:25:27.698Z,53.94
2019-05-29T11:26:25.634Z,53.85
2019-05-29T11:27:26.246Z,54.05
2019-05-29T11:28:25.563Z,53.55
2019-05-29T11:29:25.639Z,54.05
2019-05-29T11:30:25.538Z,54.02
2019-05-29T11:31:25.549Z,53.64
2019-05-29T11:32:25.528Z,53.85
2019-05-29T11:33:25.522Z,53.64
2019-05-29T11:34:25.498Z,53.85
2019-05-29T11:35:25.522Z,53.55
2019-05-29T11:36:25.487Z,53.62
2019-05-29T11:37:25.462Z,53.64
2019-05-29T11:38:25.471Z,53.55
2019-05-29T11:39:25.463Z,53.94
2019-05-29T11:40:25.469Z,53.62
2019-05-29T11:41:26.638Z,53.64
2019-05-29T11:42:27.897Z,53.85
2019-05-29T11:43:25.402Z,54.14
2019-05-29T11:44:25.393Z,54.05
2019-05-29T11:45:25.372Z,53.92
2019-05-29T11:46:25.360Z,53.85
2019-05-29T11:47:25.375Z,53.85
2019-05-29T11:48:25.393Z,54.24
2019-05-29T11:49:25.342Z,53.92
2019-05-29T11:50:25.336Z,54.32
2019-05-29T11:51:25.298Z,54.22
2019-05-29T11:52:39.738Z,53.82
2019-05-29T11:53:26.413Z,54.22
2019-05-29T11:54:25.271Z,54.14
2019-05-29T11:55:25.313Z,53.62
2019-05-29T11:56:25.275Z,54.32
2019-05-29T11:57:25.239Z,54.32
2019-05-29T11:58:31.194Z,54.35
2019-05-29T11:59:26.312Z,54.42
2019-05-29T12:00:25.238Z,54.22
2019-05-29T12:01:25.203Z,54.32
2019-05-29T12:02:25.222Z,54.24
2019-05-29T12:03:25.178Z,54.42
2019-05-29T12:04:26.809Z,54.22
2019-05-29T12:05:25.176Z,54.42
2019-05-29T12:06:25.145Z,54.32
2019-05-29T12:07:25.148Z,54.22
2019-05-29T12:08:25.171Z,54.02
2019-05-29T12:09:32.710Z,53.92
2019-05-29T12:10:26.172Z,53.92
2019-05-29T12:11:25.082Z,53.62
2019-05-29T12:12:25.068Z,53.92
2019-05-29T12:13:25.059Z,53.82
2019-05-29T12:14:25.123Z,54.02
2019-05-29T12:15:25.047Z,54.32
2019-05-29T12:16:25.154Z,53.94
2019-05-29T12:17:25.026Z,54.12
2019-05-29T12:18:25.054Z,53.52
2019-05-29T12:19:25.645Z,53.62
2019-05-29T12:20:28.088Z,53.72
2019-05-29T12:21:25.230Z,53.82
2019-05-29T12:22:26.003Z,53.92
2019-05-29T12:23:27.013Z,53.62
2019-05-29T12:24:24.966Z,53.82
2019-05-29T12:25:24.938Z,53.82
2019-05-29T12:26:24.920Z,53.62
2019-05-29T12:27:24.919Z,53.82
2019-05-29T12:28:24.942Z,53.52
2019-05-29T12:29:24.890Z,53.82
2019-05-29T12:30:24.997Z,53.62
2019-05-29T12:31:24.889Z,54.02
2019-05-29T12:32:24.857Z,53.42
2019-05-29T12:33:24.935Z,53.52
2019-05-29T12:34:24.993Z,53.62
2019-05-29T12:35:24.921Z,53.52
2019-05-29T12:36:24.809Z,53.72
2019-05-29T12:37:24.904Z,53.52
2019-05-29T12:38:24.782Z,53.72
2019-05-29T12:39:24.810Z,53.52
2019-05-29T12:40:24.822Z,53.72
2019-05-29T12:41:24.772Z,53.52
2019-05-29T12:42:24.738Z,53.62
2019-05-29T12:43:27.802Z,53.62
2019-05-29T12:44:24.753Z,53.52
2019-05-29T12:45:24.818Z,53.52
2019-05-29T12:46:24.733Z,53.52
2019-05-29T12:47:24.835Z,53.62
2019-05-29T12:48:24.800Z,53.62
2019-05-29T12:49:24.750Z,53.72
2019-05-29T12:50:24.748Z,53.62
2019-05-29T12:51:24.665Z,53.52
2019-05-29T12:52:24.649Z,53.72